EST,Max TemperatureF,Mean TemperatureF,Min TemperatureF,Max Dew PointF,MeanDew PointF,Min DewpointF,Max Humidity, Mean Humidity, Min Humidity, Max Sea Level PressureIn, Mean Sea Level PressureIn, Min Sea Level PressureIn, Max VisibilityMiles, Mean VisibilityMiles, Min VisibilityMiles, Max Wind SpeedMPH, Mean Wind SpeedMPH, Max Gust SpeedMPH,PrecipitationIn, CloudCover, Events, WindDirDegrees
2012-11-1,41,39,37,37,35,34,92,86,79,29.62,29.56,29.50,10,10,10,16,12,24,T,8,Rain,274
2012-11-2,43,39,34,32,31,29,89,76,62,29.78,29.70,29.63,10,9,2,21,11,31,0.06,8,Rain-Snow,308
2012-11-3,40,36,32,29,27,25,82,73,64,29.98,29.87,29.79,10,10,10,25,15,35,T,8,Rain,313
2012-11-4,38,35,31,28,27,23,85,77,69,30.01,29.98,29.92,10,10,10,20,13,29,T,7,,321
2012-11-5,35,30,25,23,21,16,72,63,54,30.17,30.07,29.99,10,10,10,18,10,25,0.00,7,,336
2012-11-6,38,27,16,21,16,14,84,64,44,30.22,30.16,30.08,10,10,10,13,4,16,0.00,0,,104
2012-11-7,35,32,28,23,20,13,75,61,47,30.07,29.94,29.85,10,10,5,23,13,32,T,5,Snow,21
2012-11-8,42,36,30,23,19,15,69,51,33,29.98,29.87,29.81,10,10,10,29,18,41,T,2,,326
2012-11-9,45,37,28,30,25,20,92,70,48,30.22,30.12,29.98,10,10,10,21,11,31,0.00,1,,313
2012-11-10,48,38,28,36,33,27,92,76,60,30.40,30.32,30.22,10,10,8,8,3,10,0.00,5,,224
2012-11-11,66,53,39,40,37,33,76,53,30,30.48,30.44,30.40,10,10,10,16,6,22,0.00,1,,181
2012-11-12,59,52,45,55,47,41,86,76,66,30.43,30.33,30.13,10,10,5,24,10,31,0.05,3,Rain,186
2012-11-13,57,44,31,55,30,21,96,80,63,30.46,30.29,30.12,10,8,2,22,11,31,0.96,7,Rain-Snow,323
2012-11-14,42,35,27,22,21,18,69,56,43,30.54,30.49,30.45,10,10,10,15,7,21,0.00,2,,29
2012-11-15,40,33,26,24,22,19,92,71,50,30.46,30.38,30.31,10,10,10,10,4,12,0.00,0,,93
2012-11-16,43,35,26,25,23,20,92,68,43,30.46,30.36,30.30,10,10,10,17,7,26,0.00,0,,337
2012-11-17,50,39,28,28,25,20,85,64,42,30.64,30.58,30.46,10,10,10,14,4,20,0.00,0,,34
2012-11-18,44,35,25,32,27,23,85,69,53,30.67,30.62,30.56,10,10,10,9,5,13,0.00,0,,99
2012-11-19,48,37,25,30,25,22,89,63,37,30.54,30.42,30.26,10,10,10,13,5,17,0.00,1,,92
2012-11-20,49,37,25,31,26,23,92,67,42,30.23,30.18,30.13,10,10,10,7,2,9,0.00,0,,82
2012-11-21,52,38,24,26,23,20,88,59,30,30.27,30.22,30.15,10,10,10,10,2,13,0.00,0,,36
2012-11-22,53,38,23,32,24,20,96,64,32,30.29,30.23,30.13,10,10,10,8,2,10,0.00,0,,147
2012-11-23,55,42,28,39,31,25,85,62,38,30.12,29.88,29.69,10,10,8,28,7,38,0.02,3,Rain,246
2012-11-24,38,33,28,25,20,14,69,59,49,29.83,29.75,29.69,10,9,2,25,15,37,T,7,Snow,301
2012-11-25,33,30,27,20,18,13,69,61,53,29.92,29.88,29.79,10,10,9,23,11,39,T,8,,281
2012-11-26,41,32,22,22,19,17,81,61,40,30.25,30.09,29.92,10,10,10,18,8,25,0.00,4,,286
2012-11-27,34,30,26,31,28,22,100,86,72,30.27,30.20,30.13,10,4,0,9,3,16,0.30,8,Fog-Snow,354
2012-11-28,30,24,17,25,19,16,96,80,63,30.27,30.20,30.12,10,7,0,21,6,29,0.00,3,Fog,298
2012-11-29,35,30,24,23,21,18,75,66,56,30.34,30.30,30.27,10,10,10,16,9,21,0.00,2,,278
2012-11-30,37,30,23,27,23,19,88,72,56,30.43,30.37,30.31,10,10,8,10,5,14,0.00,5,,91